Weather History for Sparta, IL

Change the Weather History Date:

Tuesday, February 26, 2013

  Actual Average (KBLV) Record (KBLV)
Temperature  
Mean Temperature 42 °F -  
Max Temperature 50 °F 50 °F 72 °F (1981)
Min Temperature 35 °F 28 °F 5 °F (1963)
Degree Days  
Heating Degree Days 22    
Moisture  
Dew Point 38 °F    
Average Humidity 89    
Maximum Humidity 100    
Minimum Humidity 71    
Precipitation  
Precipitation 0.43 in - - ()
Sea Level Pressure  
Sea Level Pressure 29.44 in    
Wind  
Wind Speed 13 mph (SSW)    
Max Wind Speed 18 mph    
Max Gust Speed 29 mph    
Visibility 9 miles    
Events Rain    
Averages and records for this station are not official NWS values.
T = Trace of Precipitation, MM = Missing Value Source: NWS Daily Summary

Daily Weather History Graph

Daily Weather History Graph

Search for Another Location

Airport:

Trip Planner

Search our weather history database for the weather conditions in past years. The results will help you decide how hot, cold, wet, or windy it might be!

Date:

Astronomy

Feb. 26, 2013 Rise Set
Actual Time 6:34 AM CST 5:49 PM CST
Civil Twilight 6:07 AM CST 6:15 PM CST
Nautical Twilight 5:37 AM CST 6:46 PM CST
Astronomical Twilight 5:06 AM CST 7:17 PM CST
Moon 7:04 PM CST (2/26) 6:38 AM CST (2/26)
Length of Visible Light 12h 08m
Length of Day
11h 14m
Full, 99% of the Moon is Illuminated
Feb 26
Full
Mar 4
Last Quarter
Mar 11
New
Mar 19
First Quarter
Mar 27
Full

Hourly Weather History & Observations

Time (CST) Temp. Windchill Dew Point Humidity Pressure Visibility Wind Dir Wind Speed Gust Speed Precip Events Conditions
12:15 AM 37.4 °F 29.3 °F 35.6 °F 93% 29.55 in 7.0 mi NE 12.7 mph 17.3 mph 0.05 in Rain Rain
12:35 AM 37.4 °F 27.8 °F 35.6 °F 93% 29.52 in 10.0 mi NE 17.3 mph 28.8 mph 0.09 in Rain Light Rain
12:55 AM 37.4 °F 27.5 °F 35.6 °F 93% 29.49 in 10.0 mi NE 18.4 mph 24.2 mph 0.13 in Rain Light Rain
1:15 AM 37.4 °F 28.5 °F 35.6 °F 93% 29.51 in 10.0 mi NE 15.0 mph - 0.02 in Rain Light Rain
1:35 AM 37.4 °F 30.3 °F 35.6 °F 93% 29.52 in 2.5 mi ENE 10.4 mph 17.3 mph 0.13 in Rain Light Rain
1:55 AM 37.4 °F 27.5 °F 35.6 °F 93% 29.46 in 7.0 mi NE 18.4 mph 26.5 mph 0.19 in Rain Rain
2:15 AM 37.4 °F 27.5 °F 35.6 °F 93% 29.45 in 7.0 mi ENE 18.4 mph 21.9 mph 0.01 in Rain Light Rain
2:35 AM 37.4 °F 28.2 °F 35.6 °F 93% 29.42 in 7.0 mi ENE 16.1 mph 26.5 mph 0.03 in Rain Light Rain
2:55 AM 37.4 °F 29.8 °F 35.6 °F 93% 29.41 in 5.0 mi ENE 11.5 mph - 0.04 in Rain Light Rain
3:15 AM 37.4 °F 28.2 °F 35.6 °F 93% 29.39 in 2.0 mi ENE 16.1 mph 21.9 mph 0.01 in Rain Rain
3:35 AM 37.4 °F 28.2 °F 35.6 °F 93% 29.39 in 5.0 mi ENE 16.1 mph 20.7 mph 0.05 in Rain Rain
3:55 AM 37.4 °F 28.5 °F 35.6 °F 93% 29.37 in 5.0 mi ENE 15.0 mph - 0.07 in Rain Light Rain
4:15 AM 37.4 °F 28.5 °F 37.4 °F 100% 29.38 in 10.0 mi East 15.0 mph - N/A Rain Light Rain
4:35 AM 39.2 °F 30.8 °F 37.4 °F 93% 29.37 in 7.0 mi East 15.0 mph - N/A   Overcast
4:55 AM 39.2 °F 30.2 °F 37.4 °F 93% 29.36 in 10.0 mi East 17.3 mph 21.9 mph N/A   Overcast
5:15 AM 39.2 °F 30.2 °F 37.4 °F 93% 29.35 in 10.0 mi East 17.3 mph 24.2 mph N/A   Overcast
5:35 AM 39.2 °F 30.5 °F 37.4 °F 93% 29.35 in 10.0 mi East 16.1 mph 24.2 mph N/A   Overcast
5:55 AM 39.2 °F 29.8 °F 37.4 °F 93% 29.34 in 10.0 mi East 18.4 mph - N/A   Overcast
6:15 AM 39.2 °F 31.6 °F 37.4 °F 93% 29.34 in 10.0 mi East 12.7 mph 16.1 mph N/A   Overcast
6:35 AM 39.2 °F 32.0 °F 37.4 °F 93% 29.34 in 10.0 mi East 11.5 mph - N/A   Overcast
6:55 AM 39.2 °F 32.0 °F 37.4 °F 93% 29.34 in 10.0 mi East 11.5 mph - N/A   Overcast
7:15 AM 39.2 °F 33.0 °F 39.2 °F 100% 29.34 in 10.0 mi East 9.2 mph - N/A   Overcast
7:35 AM 41.0 °F 33.9 °F 39.2 °F 93% 29.34 in 10.0 mi East 12.7 mph - N/A   Overcast
7:55 AM 41.0 °F 34.7 °F 39.2 °F 93% 29.35 in 10.0 mi East 10.4 mph - N/A   Overcast
8:15 AM 41.0 °F 35.8 °F 39.2 °F 93% 29.35 in 10.0 mi East 8.1 mph - N/A   Overcast
8:35 AM 42.8 °F 38.6 °F 39.2 °F 87% 29.36 in 7.0 mi East 6.9 mph - N/A   Overcast
8:55 AM 42.8 °F 38.0 °F 39.2 °F 87% 29.35 in 7.0 mi East 8.1 mph - N/A   Overcast
9:15 AM 42.8 °F 38.6 °F 41.0 °F 93% 29.35 in 7.0 mi East 6.9 mph - N/A   Overcast
9:35 AM 44.6 °F 42.2 °F 42.8 °F 93% 29.35 in 10.0 mi SE 4.6 mph - N/A   Overcast
9:55 AM 44.6 °F 40.7 °F 42.8 °F 93% 29.35 in 10.0 mi SE 6.9 mph - N/A   Overcast
10:15 AM 48.2 °F - 44.6 °F 87% 29.35 in 10.0 mi South 9.2 mph - N/A   Overcast
10:35 AM 48.2 °F - 42.8 °F 82% 29.36 in 10.0 mi South 9.2 mph - N/A   Overcast
10:55 AM 48.2 °F - 42.8 °F 82% 29.36 in 10.0 mi South 11.5 mph - N/A   Mostly Cloudy
11:15 AM 48.2 °F - 42.8 °F 82% 29.36 in 10.0 mi SSW 11.5 mph 18.4 mph N/A   Overcast
11:35 AM 46.4 °F 41.1 °F 41.0 °F 81% 29.37 in 10.0 mi SSW 11.5 mph - N/A   Overcast
11:55 AM 48.2 °F - 39.2 °F 71% 29.37 in 10.0 mi SSW 11.5 mph - N/A   Overcast
12:15 PM 48.2 °F - 39.2 °F 71% 29.37 in 10.0 mi SSW 10.4 mph 17.3 mph N/A   Overcast
12:35 PM 48.2 °F - 41.0 °F 76% 29.37 in 10.0 mi SSW 10.4 mph - N/A   Overcast
12:55 PM 50.0 °F - 41.0 °F 71% 29.36 in 10.0 mi SSW 9.2 mph 17.3 mph N/A   Mostly Cloudy
1:15 PM 50.0 °F - 41.0 °F 71% 29.36 in 10.0 mi SSW 10.4 mph - N/A   Mostly Cloudy
1:35 PM 48.2 °F - 41.0 °F 76% 29.36 in 10.0 mi WSW 8.1 mph - N/A   Overcast
1:55 PM 48.2 °F - 42.8 °F 82% 29.37 in 10.0 mi SSW 9.2 mph - N/A   Overcast
2:15 PM 48.2 °F - 41.0 °F 76% 29.37 in 10.0 mi SSW 10.4 mph - N/A   Overcast
2:35 PM 46.4 °F 41.1 °F 42.8 °F 87% 29.38 in 10.0 mi SSW 11.5 mph - N/A   Drizzle
2:55 PM 46.4 °F 43.5 °F 42.8 °F 87% 29.40 in 10.0 mi South 5.8 mph - N/A Rain Light Rain
3:15 PM 46.4 °F 43.5 °F 42.8 °F 87% 29.40 in 10.0 mi SSW 5.8 mph - N/A   Overcast
3:35 PM 46.4 °F 42.9 °F 42.8 °F 87% 29.41 in 10.0 mi SSW 6.9 mph - N/A   Overcast
3:55 PM 46.4 °F 44.3 °F 41.0 °F 81% 29.42 in 10.0 mi WSW 4.6 mph - N/A Rain Rain
4:15 PM 44.6 °F 42.2 °F 41.0 °F 87% 29.43 in 10.0 mi SSW 4.6 mph - N/A   Drizzle
4:35 PM 44.6 °F 40.7 °F 41.0 °F 87% 29.44 in 10.0 mi WSW 6.9 mph - N/A   Light Drizzle
4:55 PM 44.6 °F 38.8 °F 39.2 °F 81% 29.45 in 10.0 mi WSW 11.5 mph - N/A   Light Drizzle
5:15 PM 42.8 °F 38.0 °F 39.2 °F 87% 29.46 in 10.0 mi West 8.1 mph 17.3 mph N/A   Overcast
5:35 PM 42.8 °F 35.8 °F 39.2 °F 87% 29.47 in 10.0 mi West 13.8 mph 20.7 mph N/A   Overcast
5:55 PM 41.0 °F 34.3 °F 37.4 °F 87% 29.50 in 10.0 mi West 11.5 mph 23.0 mph N/A   Overcast
6:15 PM 39.2 °F 32.0 °F 37.4 °F 93% 29.51 in 10.0 mi West 11.5 mph 20.7 mph N/A   Overcast
6:35 PM 39.2 °F 31.6 °F 37.4 °F 93% 29.52 in 7.0 mi West 12.7 mph 17.3 mph N/A   Overcast
6:55 PM 39.2 °F 32.5 °F 37.4 °F 93% 29.54 in 10.0 mi West 10.4 mph 17.3 mph N/A   Overcast
7:15 PM 37.4 °F 29.3 °F 35.6 °F 93% 29.55 in 10.0 mi West 12.7 mph - N/A   Overcast
7:35 PM 37.4 °F 29.3 °F 35.6 °F 93% 29.56 in 10.0 mi West 12.7 mph - N/A   Overcast
7:55 PM 37.4 °F 28.9 °F 35.6 °F 93% 29.56 in 10.0 mi West 13.8 mph 20.7 mph N/A   Overcast
8:15 PM 37.4 °F 29.3 °F 35.6 °F 93% 29.57 in 10.0 mi West 12.7 mph 18.4 mph N/A   Overcast
8:35 PM 37.4 °F 29.3 °F 35.6 °F 93% 29.59 in 10.0 mi West 12.7 mph 18.4 mph N/A   Overcast
8:55 PM 37.4 °F 29.8 °F 33.8 °F 87% 29.59 in 10.0 mi WNW 11.5 mph - N/A   Overcast
9:15 PM 37.4 °F 31.4 °F 33.8 °F 87% 29.60 in 10.0 mi WNW 8.1 mph - N/A   Overcast
9:35 PM 37.4 °F 31.4 °F 33.8 °F 87% 29.61 in 10.0 mi West 8.1 mph - N/A   Overcast
9:55 PM 35.6 °F 27.5 °F 33.8 °F 93% 29.62 in 10.0 mi West 11.5 mph 19.6 mph N/A   Overcast
10:15 PM 35.6 °F 27.5 °F 33.8 °F 93% 29.64 in 10.0 mi West 11.5 mph 19.6 mph N/A   Overcast
10:35 PM 35.6 °F 28.6 °F 33.8 °F 93% 29.64 in 10.0 mi West 9.2 mph - N/A   Overcast
10:55 PM 35.6 °F 28.0 °F 33.8 °F 93% 29.65 in 10.0 mi West 10.4 mph - N/A   Overcast
11:15 PM 35.6 °F 26.6 °F 33.8 °F 93% 29.66 in 10.0 mi West 13.8 mph 18.4 mph N/A   Overcast
11:35 PM 35.6 °F 26.2 °F 32.0 °F 87% 29.67 in 10.0 mi West 15.0 mph - N/A   Overcast
11:55 PM 35.6 °F 26.2 °F 32.0 °F 87% 29.67 in 10.0 mi West 15.0 mph 21.9 mph N/A   Overcast